sensor_id;sensor_type;location;lat;lon;timestamp;P1;P2;P0
72329;PMS5003;69154;52.076;5.110;2023-04-25T00:01:57;13;8;
72329;PMS5003;69154;52.076;5.110;2023-04-25T00:04:22;8;8;
72329;PMS5003;69154;52.076;5.110;2023-04-25T00:06:48;12;12;
72329;PMS5003;69154;52.076;5.110;2023-04-25T00:09:14;10;10;
72329;PMS5003;69154;52.076;5.110;2023-04-25T00:11:39;7;7;
72329;PMS5003;69154;52.076;5.110;2023-04-25T00:14:05;13;12;
72329;PMS5003;69154;52.076;5.110;2023-04-25T00:16:30;8;8;
72329;PMS5003;69154;52.076;5.110;2023-04-25T00:18:55;5;5;
72329;PMS5003;69154;52.076;5.110;2023-04-25T00:21:21;7;7;
72329;PMS5003;69154;52.076;5.110;2023-04-25T00:23:46;7;6;
72329;PMS5003;69154;52.076;5.110;2023-04-25T00:26:12;6;6;
72329;PMS5003;69154;52.076;5.110;2023-04-25T00:28:38;6;6;
72329;PMS5003;69154;52.076;5.110;2023-04-25T00:31:03;6;6;
72329;PMS5003;69154;52.076;5.110;2023-04-25T00:33:28;10;8;
72329;PMS5003;69154;52.076;5.110;2023-04-25T00:35:54;10;8;
72329;PMS5003;69154;52.076;5.110;2023-04-25T00:38:19;8;7;
72329;PMS5003;69154;52.076;5.110;2023-04-25T00:40:44;10;7;
72329;PMS5003;69154;52.076;5.110;2023-04-25T00:43:10;8;7;
72329;PMS5003;69154;52.076;5.110;2023-04-25T00:45:36;10;10;
72329;PMS5003;69154;52.076;5.110;2023-04-25T00:48:01;6;6;
72329;PMS5003;69154;52.076;5.110;2023-04-25T00:50:27;8;8;
72329;PMS5003;69154;52.076;5.110;2023-04-25T00:52:52;10;10;
72329;PMS5003;69154;52.076;5.110;2023-04-25T00:55:18;12;8;
72329;PMS5003;69154;52.076;5.110;2023-04-25T00:57:43;14;14;
72329;PMS5003;69154;52.076;5.110;2023-04-25T01:00:09;15;14;
72329;PMS5003;69154;52.076;5.110;2023-04-25T01:02:34;12;11;
72329;PMS5003;69154;52.076;5.110;2023-04-25T01:04:59;10;10;
72329;PMS5003;69154;52.076;5.110;2023-04-25T01:07:25;10;7;
72329;PMS5003;69154;52.076;5.110;2023-04-25T01:09:51;9;9;
72329;PMS5003;69154;52.076;5.110;2023-04-25T01:12:15;10;9;
72329;PMS5003;69154;52.076;5.110;2023-04-25T01:14:41;14;13;
72329;PMS5003;69154;52.076;5.110;2023-04-25T01:17:06;10;9;
72329;PMS5003;69154;52.076;5.110;2023-04-25T01:19:32;9;9;
72329;PMS5003;69154;52.076;5.110;2023-04-25T01:21:58;11;9;
72329;PMS5003;69154;52.076;5.110;2023-04-25T01:24:23;9;9;
72329;PMS5003;69154;52.076;5.110;2023-04-25T01:26:48;9;7;
72329;PMS5003;69154;52.076;5.110;2023-04-25T01:29:14;11;10;
72329;PMS5003;69154;52.076;5.110;2023-04-25T01:31:39;11;9;
72329;PMS5003;69154;52.076;5.110;2023-04-25T01:34:05;9;9;
72329;PMS5003;69154;52.076;5.110;2023-04-25T01:36:30;10;9;
72329;PMS5003;69154;52.076;5.110;2023-04-25T01:38:56;9;9;
72329;PMS5003;69154;52.076;5.110;2023-04-25T01:41:21;9;7;
72329;PMS5003;69154;52.076;5.110;2023-04-25T01:43:46;9;7;
72329;PMS5003;69154;52.076;5.110;2023-04-25T01:46:12;5;5;
72329;PMS5003;69154;52.076;5.110;2023-04-25T01:48:37;9;7;
72329;PMS5003;69154;52.076;5.110;2023-04-25T01:51:03;6;6;
72329;PMS5003;69154;52.076;5.110;2023-04-25T01:53:28;10;9;
72329;PMS5003;69154;52.076;5.110;2023-04-25T01:55:54;7;7;
72329;PMS5003;69154;52.076;5.110;2023-04-25T01:58:19;5;5;
72329;PMS5003;69154;52.076;5.110;2023-04-25T02:00:45;9;7;
72329;PMS5003;69154;52.076;5.110;2023-04-25T02:03:10;7;6;
72329;PMS5003;69154;52.076;5.110;2023-04-25T02:05:36;9;9;
72329;PMS5003;69154;52.076;5.110;2023-04-25T02:08:01;11;10;
72329;PMS5003;69154;52.076;5.110;2023-04-25T02:10:27;9;6;
72329;PMS5003;69154;52.076;5.110;2023-04-25T02:12:52;8;8;
72329;PMS5003;69154;52.076;5.110;2023-04-25T02:15:18;8;7;
72329;PMS5003;69154;52.076;5.110;2023-04-25T02:17:43;9;7;
72329;PMS5003;69154;52.076;5.110;2023-04-25T02:20:09;7;6;
72329;PMS5003;69154;52.076;5.110;2023-04-25T02:22:34;11;11;
72329;PMS5003;69154;52.076;5.110;2023-04-25T02:24:59;7;7;
72329;PMS5003;69154;52.076;5.110;2023-04-25T02:27:25;10;9;
72329;PMS5003;69154;52.076;5.110;2023-04-25T02:29:50;14;11;
72329;PMS5003;69154;52.076;5.110;2023-04-25T02:32:16;10;9;
72329;PMS5003;69154;52.076;5.110;2023-04-25T02:34:41;11;9;
72329;PMS5003;69154;52.076;5.110;2023-04-25T02:37:07;15;11;
72329;PMS5003;69154;52.076;5.110;2023-04-25T02:39:32;9;9;
72329;PMS5003;69154;52.076;5.110;2023-04-25T02:41:58;12;11;
72329;PMS5003;69154;52.076;5.110;2023-04-25T02:44:23;11;11;
72329;PMS5003;69154;52.076;5.110;2023-04-25T02:46:49;11;11;
72329;PMS5003;69154;52.076;5.110;2023-04-25T02:49:15;8;8;
72329;PMS5003;69154;52.076;5.110;2023-04-25T02:51:40;14;11;
72329;PMS5003;69154;52.076;5.110;2023-04-25T02:54:06;15;14;
72329;PMS5003;69154;52.076;5.110;2023-04-25T02:56:31;12;10;
72329;PMS5003;69154;52.076;5.110;2023-04-25T02:58:56;15;14;
72329;PMS5003;69154;52.076;5.110;2023-04-25T03:01:21;14;10;
72329;PMS5003;69154;52.076;5.110;2023-04-25T03:03:47;12;12;
72329;PMS5003;69154;52.076;5.110;2023-04-25T03:06:12;13;11;
72329;PMS5003;69154;52.076;5.110;2023-04-25T03:08:38;10;10;
72329;PMS5003;69154;52.076;5.110;2023-04-25T03:11:03;10;8;
72329;PMS5003;69154;52.076;5.110;2023-04-25T03:13:29;12;11;
72329;PMS5003;69154;52.076;5.110;2023-04-25T03:15:54;8;8;
72329;PMS5003;69154;52.076;5.110;2023-04-25T03:18:19;8;7;
72329;PMS5003;69154;52.076;5.110;2023-04-25T03:20:44;7;7;
72329;PMS5003;69154;52.076;5.110;2023-04-25T03:23:10;11;8;
72329;PMS5003;69154;52.076;5.110;2023-04-25T03:25:36;6;5;
72329;PMS5003;69154;52.076;5.110;2023-04-25T03:28:01;6;6;
72329;PMS5003;69154;52.076;5.110;2023-04-25T03:30:27;6;6;
72329;PMS5003;69154;52.076;5.110;2023-04-25T03:32:52;6;6;
72329;PMS5003;69154;52.076;5.110;2023-04-25T03:35:18;7;6;
72329;PMS5003;69154;52.076;5.110;2023-04-25T03:37:43;5;5;
72329;PMS5003;69154;52.076;5.110;2023-04-25T03:40:09;6;6;
72329;PMS5003;69154;52.076;5.110;2023-04-25T03:42:34;5;5;
72329;PMS5003;69154;52.076;5.110;2023-04-25T03:45:00;6;5;
72329;PMS5003;69154;52.076;5.110;2023-04-25T03:47:25;9;6;
72329;PMS5003;69154;52.076;5.110;2023-04-25T03:49:51;7;6;
72329;PMS5003;69154;52.076;5.110;2023-04-25T03:52:16;3;3;
72329;PMS5003;69154;52.076;5.110;2023-04-25T03:54:42;6;5;
72329;PMS5003;69154;52.076;5.110;2023-04-25T03:57:07;5;5;
72329;PMS5003;69154;52.076;5.110;2023-04-25T03:59:33;6;6;
72329;PMS5003;69154;52.076;5.110;2023-04-25T04:01:58;5;5;
72329;PMS5003;69154;52.076;5.110;2023-04-25T04:04:24;11;8;
72329;PMS5003;69154;52.076;5.110;2023-04-25T04:06:49;3;3;
72329;PMS5003;69154;52.076;5.110;2023-04-25T04:09:15;5;3;
72329;PMS5003;69154;52.076;5.110;2023-04-25T04:11:40;7;6;
72329;PMS5003;69154;52.076;5.110;2023-04-25T04:14:06;5;5;
72329;PMS5003;69154;52.076;5.110;2023-04-25T04:16:31;6;5;
72329;PMS5003;69154;52.076;5.110;2023-04-25T04:18:56;7;6;
72329;PMS5003;69154;52.076;5.110;2023-04-25T04:21:22;7;7;
72329;PMS5003;69154;52.076;5.110;2023-04-25T04:23:48;6;6;
72329;PMS5003;69154;52.076;5.110;2023-04-25T04:26:13;9;6;
72329;PMS5003;69154;52.076;5.110;2023-04-25T04:28:39;11;10;
72329;PMS5003;69154;52.076;5.110;2023-04-25T04:31:04;11;11;
72329;PMS5003;69154;52.076;5.110;2023-04-25T04:33:29;6;6;
72329;PMS5003;69154;52.076;5.110;2023-04-25T04:35:55;6;6;
72329;PMS5003;69154;52.076;5.110;2023-04-25T04:38:20;7;6;
72329;PMS5003;69154;52.076;5.110;2023-04-25T04:40:45;5;5;
72329;PMS5003;69154;52.076;5.110;2023-04-25T04:43:11;7;6;
72329;PMS5003;69154;52.076;5.110;2023-04-25T04:45:36;6;5;
72329;PMS5003;69154;52.076;5.110;2023-04-25T04:48:02;7;7;
72329;PMS5003;69154;52.076;5.110;2023-04-25T04:50:28;7;6;
72329;PMS5003;69154;52.076;5.110;2023-04-25T04:52:53;6;5;
72329;PMS5003;69154;52.076;5.110;2023-04-25T04:55:19;3;3;
72329;PMS5003;69154;52.076;5.110;2023-04-25T04:57:44;6;6;
72329;PMS5003;69154;52.076;5.110;2023-04-25T05:00:10;7;6;
72329;PMS5003;69154;52.076;5.110;2023-04-25T05:02:35;3;3;
72329;PMS5003;69154;52.076;5.110;2023-04-25T05:05:00;5;5;
72329;PMS5003;69154;52.076;5.110;2023-04-25T05:07:26;5;5;
72329;PMS5003;69154;52.076;5.110;2023-04-25T05:09:51;8;6;
72329;PMS5003;69154;52.076;5.110;2023-04-25T05:12:17;8;7;
72329;PMS5003;69154;52.076;5.110;2023-04-25T05:14:42;3;3;
72329;PMS5003;69154;52.076;5.110;2023-04-25T05:17:08;6;5;
72329;PMS5003;69154;52.076;5.110;2023-04-25T05:19:33;5;3;
72329;PMS5003;69154;52.076;5.110;2023-04-25T05:21:58;3;2;
72329;PMS5003;69154;52.076;5.110;2023-04-25T05:24:24;8;5;
72329;PMS5003;69154;52.076;5.110;2023-04-25T05:26:49;7;6;
72329;PMS5003;69154;52.076;5.110;2023-04-25T05:29:15;3;3;
72329;PMS5003;69154;52.076;5.110;2023-04-25T05:31:41;6;3;
72329;PMS5003;69154;52.076;5.110;2023-04-25T05:34:06;2;2;
72329;PMS5003;69154;52.076;5.110;2023-04-25T05:36:31;3;3;
72329;PMS5003;69154;52.076;5.110;2023-04-25T05:38:57;6;6;
72329;PMS5003;69154;52.076;5.110;2023-04-25T05:41:22;6;6;
72329;PMS5003;69154;52.076;5.110;2023-04-25T05:43:48;6;4;
72329;PMS5003;69154;52.076;5.110;2023-04-25T05:46:13;7;5;
72329;PMS5003;69154;52.076;5.110;2023-04-25T05:48:39;3;3;
72329;PMS5003;69154;52.076;5.110;2023-04-25T05:51:04;3;3;
72329;PMS5003;69154;52.076;5.110;2023-04-25T05:53:30;4;3;
72329;PMS5003;69154;52.076;5.110;2023-04-25T05:55:55;4;4;
72329;PMS5003;69154;52.076;5.110;2023-04-25T05:58:20;4;3;
72329;PMS5003;69154;52.076;5.110;2023-04-25T06:00:46;2;2;
72329;PMS5003;69154;52.076;5.110;2023-04-25T06:03:11;4;3;
72329;PMS5003;69154;52.076;5.110;2023-04-25T06:05:37;2;2;
72329;PMS5003;69154;52.076;5.110;2023-04-25T06:08:02;4;3;
72329;PMS5003;69154;52.076;5.110;2023-04-25T06:10:27;4;4;
72329;PMS5003;69154;52.076;5.110;2023-04-25T06:12:53;4;4;
72329;PMS5003;69154;52.076;5.110;2023-04-25T06:15:19;4;4;
72329;PMS5003;69154;52.076;5.110;2023-04-25T06:17:43;6;6;
72329;PMS5003;69154;52.076;5.110;2023-04-25T06:20:09;7;7;
72329;PMS5003;69154;52.076;5.110;2023-04-25T06:22:34;7;4;
72329;PMS5003;69154;52.076;5.110;2023-04-25T06:25:00;8;6;
72329;PMS5003;69154;52.076;5.110;2023-04-25T06:27:25;7;6;
72329;PMS5003;69154;52.076;5.110;2023-04-25T06:29:50;7;7;
72329;PMS5003;69154;52.076;5.110;2023-04-25T06:32:16;3;3;
72329;PMS5003;69154;52.076;5.110;2023-04-25T06:34:41;9;8;
72329;PMS5003;69154;52.076;5.110;2023-04-25T06:37:07;4;4;
72329;PMS5003;69154;52.076;5.110;2023-04-25T06:39:32;10;9;
72329;PMS5003;69154;52.076;5.110;2023-04-25T06:41:57;7;7;
72329;PMS5003;69154;52.076;5.110;2023-04-25T06:44:23;5;5;
72329;PMS5003;69154;52.076;5.110;2023-04-25T06:46:48;5;5;
72329;PMS5003;69154;52.076;5.110;2023-04-25T06:49:14;4;4;
72329;PMS5003;69154;52.076;5.110;2023-04-25T06:51:40;7;7;
72329;PMS5003;69154;52.076;5.110;2023-04-25T06:54:04;8;5;
72329;PMS5003;69154;52.076;5.110;2023-04-25T06:56:29;3;3;
72329;PMS5003;69154;52.076;5.110;2023-04-25T06:58:55;4;3;
72329;PMS5003;69154;52.076;5.110;2023-04-25T07:01:20;5;4;
72329;PMS5003;69154;52.076;5.110;2023-04-25T07:03:46;3;3;
72329;PMS5003;69154;52.076;5.110;2023-04-25T07:06:11;4;3;
72329;PMS5003;69154;52.076;5.110;2023-04-25T07:08:36;2;2;
72329;PMS5003;69154;52.076;5.110;2023-04-25T07:11:01;4;3;
72329;PMS5003;69154;52.076;5.110;2023-04-25T07:13:27;3;3;
72329;PMS5003;69154;52.076;5.110;2023-04-25T07:15:52;4;3;
72329;PMS5003;69154;52.076;5.110;2023-04-25T07:18:17;3;3;
72329;PMS5003;69154;52.076;5.110;2023-04-25T07:20:42;3;3;
72329;PMS5003;69154;52.076;5.110;2023-04-25T07:23:08;4;2;
72329;PMS5003;69154;52.076;5.110;2023-04-25T07:25:33;5;4;
72329;PMS5003;69154;52.076;5.110;2023-04-25T07:27:58;3;3;
72329;PMS5003;69154;52.076;5.110;2023-04-25T07:30:23;5;4;
72329;PMS5003;69154;52.076;5.110;2023-04-25T07:32:49;4;2;
72329;PMS5003;69154;52.076;5.110;2023-04-25T07:35:15;5;5;
72329;PMS5003;69154;52.076;5.110;2023-04-25T07:37:40;4;4;
72329;PMS5003;69154;52.076;5.110;2023-04-25T07:40:05;2;2;
72329;PMS5003;69154;52.076;5.110;2023-04-25T07:42:30;1;1;
72329;PMS5003;69154;52.076;5.110;2023-04-25T07:44:56;3;2;
72329;PMS5003;69154;52.076;5.110;2023-04-25T07:47:21;1;1;
72329;PMS5003;69154;52.076;5.110;2023-04-25T07:49:46;3;3;
72329;PMS5003;69154;52.076;5.110;2023-04-25T07:52:12;1;1;
72329;PMS5003;69154;52.076;5.110;2023-04-25T07:54:37;2;2;
72329;PMS5003;69154;52.076;5.110;2023-04-25T07:57:04;0;0;
72329;PMS5003;69154;52.076;5.110;2023-04-25T07:59:28;2;2;
72329;PMS5003;69154;52.076;5.110;2023-04-25T08:01:53;2;1;
72329;PMS5003;69154;52.076;5.110;2023-04-25T08:04:19;2;2;
72329;PMS5003;69154;52.076;5.110;2023-04-25T08:06:44;2;1;
72329;PMS5003;69154;52.076;5.110;2023-04-25T08:09:10;2;1;
72329;PMS5003;69154;52.076;5.110;2023-04-25T08:11:35;1;1;
72329;PMS5003;69154;52.076;5.110;2023-04-25T08:14:01;1;1;
72329;PMS5003;69154;52.076;5.110;2023-04-25T08:16:26;2;2;
72329;PMS5003;69154;52.076;5.110;2023-04-25T08:18:51;1;1;
72329;PMS5003;69154;52.076;5.110;2023-04-25T08:21:16;1;1;
72329;PMS5003;69154;52.076;5.110;2023-04-25T08:23:42;2;2;
72329;PMS5003;69154;52.076;5.110;2023-04-25T08:26:07;2;2;
72329;PMS5003;69154;52.076;5.110;2023-04-25T08:28:32;2;2;
72329;PMS5003;69154;52.076;5.110;2023-04-25T08:30:58;2;1;
72329;PMS5003;69154;52.076;5.110;2023-04-25T08:33:23;2;2;
72329;PMS5003;69154;52.076;5.110;2023-04-25T08:35:48;4;2;
72329;PMS5003;69154;52.076;5.110;2023-04-25T08:38:14;3;1;
72329;PMS5003;69154;52.076;5.110;2023-04-25T08:40:39;2;2;
72329;PMS5003;69154;52.076;5.110;2023-04-25T08:43:04;2;2;
72329;PMS5003;69154;52.076;5.110;2023-04-25T08:45:31;4;3;
72329;PMS5003;69154;52.076;5.110;2023-04-25T08:47:55;4;3;
72329;PMS5003;69154;52.076;5.110;2023-04-25T08:50:21;2;1;
72329;PMS5003;69154;52.076;5.110;2023-04-25T08:52:45;2;1;
72329;PMS5003;69154;52.076;5.110;2023-04-25T08:55:11;1;1;
72329;PMS5003;69154;52.076;5.110;2023-04-25T08:57:37;2;2;
72329;PMS5003;69154;52.076;5.110;2023-04-25T09:00:04;2;1;
72329;PMS5003;69154;52.076;5.110;2023-04-25T09:02:27;3;2;
72329;PMS5003;69154;52.076;5.110;2023-04-25T09:04:53;3;2;
72329;PMS5003;69154;52.076;5.110;2023-04-25T09:07:18;6;3;
72329;PMS5003;69154;52.076;5.110;2023-04-25T09:09:43;2;2;
72329;PMS5003;69154;52.076;5.110;2023-04-25T09:12:08;2;1;
72329;PMS5003;69154;52.076;5.110;2023-04-25T09:14:39;1;1;
72329;PMS5003;69154;52.076;5.110;2023-04-25T09:17:00;2;2;
72329;PMS5003;69154;52.076;5.110;2023-04-25T09:19:25;2;1;
72329;PMS5003;69154;52.076;5.110;2023-04-25T09:21:50;2;2;
72329;PMS5003;69154;52.076;5.110;2023-04-25T09:24:15;2;2;
72329;PMS5003;69154;52.076;5.110;2023-04-25T09:26:40;2;2;
72329;PMS5003;69154;52.076;5.110;2023-04-25T09:29:06;1;1;
72329;PMS5003;69154;52.076;5.110;2023-04-25T09:31:31;1;1;
72329;PMS5003;69154;52.076;5.110;2023-04-25T09:33:58;1;1;
72329;PMS5003;69154;52.076;5.110;2023-04-25T09:36:25;2;2;
72329;PMS5003;69154;52.076;5.110;2023-04-25T09:38:46;2;2;
72329;PMS5003;69154;52.076;5.110;2023-04-25T09:41:12;1;1;
72329;PMS5003;69154;52.076;5.110;2023-04-25T09:43:37;1;1;
72329;PMS5003;69154;52.076;5.110;2023-04-25T09:46:03;1;1;
72329;PMS5003;69154;52.076;5.110;2023-04-25T09:48:28;4;4;
72329;PMS5003;69154;52.076;5.110;2023-04-25T09:51:03;1;1;
72329;PMS5003;69154;52.076;5.110;2023-04-25T09:53:18;1;1;
72329;PMS5003;69154;52.076;5.110;2023-04-25T09:55:44;3;2;
72329;PMS5003;69154;52.076;5.110;2023-04-25T09:58:09;1;1;
72329;PMS5003;69154;52.076;5.110;2023-04-25T10:00:34;1;1;
72329;PMS5003;69154;52.076;5.110;2023-04-25T10:03:00;0;0;
72329;PMS5003;69154;52.076;5.110;2023-04-25T10:05:25;1;1;
72329;PMS5003;69154;52.076;5.110;2023-04-25T10:07:50;0;0;
72329;PMS5003;69154;52.076;5.110;2023-04-25T10:10:16;1;0;
72329;PMS5003;69154;52.076;5.110;2023-04-25T10:12:41;1;1;
72329;PMS5003;69154;52.076;5.110;2023-04-25T10:15:07;1;1;
72329;PMS5003;69154;52.076;5.110;2023-04-25T10:17:32;2;1;
72329;PMS5003;69154;52.076;5.110;2023-04-25T10:19:57;1;1;
72329;PMS5003;69154;52.076;5.110;2023-04-25T10:22:25;3;2;
72329;PMS5003;69154;52.076;5.110;2023-04-25T10:24:48;1;1;
72329;PMS5003;69154;52.076;5.110;2023-04-25T10:27:13;1;1;
72329;PMS5003;69154;52.076;5.110;2023-04-25T10:29:38;0;0;
72329;PMS5003;69154;52.076;5.110;2023-04-25T10:32:03;2;2;
72329;PMS5003;69154;52.076;5.110;2023-04-25T10:34:40;0;0;
72329;PMS5003;69154;52.076;5.110;2023-04-25T10:36:54;1;1;
72329;PMS5003;69154;52.076;5.110;2023-04-25T10:39:22;3;3;
72329;PMS5003;69154;52.076;5.110;2023-04-25T10:41:45;1;1;
72329;PMS5003;69154;52.076;5.110;2023-04-25T10:44:09;2;1;
72329;PMS5003;69154;52.076;5.110;2023-04-25T10:46:34;2;1;
72329;PMS5003;69154;52.076;5.110;2023-04-25T10:49:00;2;2;
72329;PMS5003;69154;52.076;5.110;2023-04-25T10:51:25;1;1;
72329;PMS5003;69154;52.076;5.110;2023-04-25T10:53:57;3;2;
72329;PMS5003;69154;52.076;5.110;2023-04-25T10:56:18;2;2;
72329;PMS5003;69154;52.076;5.110;2023-04-25T10:58:43;2;2;
72329;PMS5003;69154;52.076;5.110;2023-04-25T11:01:05;2;2;
72329;PMS5003;69154;52.076;5.110;2023-04-25T11:03:30;2;2;
72329;PMS5003;69154;52.076;5.110;2023-04-25T11:05:55;3;2;
72329;PMS5003;69154;52.076;5.110;2023-04-25T11:08:28;2;2;
72329;PMS5003;69154;52.076;5.110;2023-04-25T11:10:45;4;3;
72329;PMS5003;69154;52.076;5.110;2023-04-25T11:13:10;2;2;
72329;PMS5003;69154;52.076;5.110;2023-04-25T11:15:36;5;2;
72329;PMS5003;69154;52.076;5.110;2023-04-25T11:18:01;1;1;
72329;PMS5003;69154;52.076;5.110;2023-04-25T11:20:26;1;1;
72329;PMS5003;69154;52.076;5.110;2023-04-25T11:22:51;2;2;
72329;PMS5003;69154;52.076;5.110;2023-04-25T11:25:17;1;1;
72329;PMS5003;69154;52.076;5.110;2023-04-25T11:27:49;3;2;
72329;PMS5003;69154;52.076;5.110;2023-04-25T11:30:11;1;1;
72329;PMS5003;69154;52.076;5.110;2023-04-25T11:32:33;1;1;
72329;PMS5003;69154;52.076;5.110;2023-04-25T11:34:57;3;2;
72329;PMS5003;69154;52.076;5.110;2023-04-25T11:37:22;1;1;
72329;PMS5003;69154;52.076;5.110;2023-04-25T11:39:47;2;1;
72329;PMS5003;69154;52.076;5.110;2023-04-25T11:42:12;2;1;
72329;PMS5003;69154;52.076;5.110;2023-04-25T11:44:38;2;1;
72329;PMS5003;69154;52.076;5.110;2023-04-25T11:47:02;2;2;
72329;PMS5003;69154;52.076;5.110;2023-04-25T11:49:30;2;2;
72329;PMS5003;69154;52.076;5.110;2023-04-25T11:51:53;1;1;
72329;PMS5003;69154;52.076;5.110;2023-04-25T11:54:18;1;1;
72329;PMS5003;69154;52.076;5.110;2023-04-25T11:56:43;3;2;
72329;PMS5003;69154;52.076;5.110;2023-04-25T11:59:09;3;3;
72329;PMS5003;69154;52.076;5.110;2023-04-25T12:01:34;2;2;
72329;PMS5003;69154;52.076;5.110;2023-04-25T12:04:09;3;2;
72329;PMS5003;69154;52.076;5.110;2023-04-25T12:06:27;4;4;
72329;PMS5003;69154;52.076;5.110;2023-04-25T12:08:59;3;3;
72329;PMS5003;69154;52.076;5.110;2023-04-25T12:11:20;2;2;
72329;PMS5003;69154;52.076;5.110;2023-04-25T12:13:40;2;2;
72329;PMS5003;69154;52.076;5.110;2023-04-25T12:16:05;1;1;
72329;PMS5003;69154;52.076;5.110;2023-04-25T12:18:31;3;2;
72329;PMS5003;69154;52.076;5.110;2023-04-25T12:20:56;3;3;
72329;PMS5003;69154;52.076;5.110;2023-04-25T12:23:25;2;2;
72329;PMS5003;69154;52.076;5.110;2023-04-25T12:25:47;2;2;
72329;PMS5003;69154;52.076;5.110;2023-04-25T12:28:13;2;2;
72329;PMS5003;69154;52.076;5.110;2023-04-25T12:30:51;3;2;
72329;PMS5003;69154;52.076;5.110;2023-04-25T12:33:07;3;3;
72329;PMS5003;69154;52.076;5.110;2023-04-25T12:35:27;1;1;
72329;PMS5003;69154;52.076;5.110;2023-04-25T12:37:52;3;2;
72329;PMS5003;69154;52.076;5.110;2023-04-25T12:40:17;2;2;
72329;PMS5003;69154;52.076;5.110;2023-04-25T12:42:44;2;2;
72329;PMS5003;69154;52.076;5.110;2023-04-25T12:45:08;3;2;
72329;PMS5003;69154;52.076;5.110;2023-04-25T12:47:33;1;1;
72329;PMS5003;69154;52.076;5.110;2023-04-25T12:49:58;2;2;
72329;PMS5003;69154;52.076;5.110;2023-04-25T12:52:23;2;2;
72329;PMS5003;69154;52.076;5.110;2023-04-25T12:54:48;2;2;
72329;PMS5003;69154;52.076;5.110;2023-04-25T12:57:13;3;3;
72329;PMS5003;69154;52.076;5.110;2023-04-25T12:59:38;3;2;
72329;PMS5003;69154;52.076;5.110;2023-04-25T13:02:04;2;2;
72329;PMS5003;69154;52.076;5.110;2023-04-25T13:04:29;2;2;
72329;PMS5003;69154;52.076;5.110;2023-04-25T13:06:54;4;2;
72329;PMS5003;69154;52.076;5.110;2023-04-25T13:09:20;1;1;
72329;PMS5003;69154;52.076;5.110;2023-04-25T13:11:44;2;2;
72329;PMS5003;69154;52.076;5.110;2023-04-25T13:14:09;1;1;
72329;PMS5003;69154;52.076;5.110;2023-04-25T13:16:34;2;2;
72329;PMS5003;69154;52.076;5.110;2023-04-25T13:18:59;1;1;
72329;PMS5003;69154;52.076;5.110;2023-04-25T13:21:25;2;2;
72329;PMS5003;69154;52.076;5.110;2023-04-25T13:23:50;2;2;
72329;PMS5003;69154;52.076;5.110;2023-04-25T13:26:15;2;1;
72329;PMS5003;69154;52.076;5.110;2023-04-25T13:28:40;1;1;
72329;PMS5003;69154;52.076;5.110;2023-04-25T13:31:05;3;3;
72329;PMS5003;69154;52.076;5.110;2023-04-25T13:33:30;2;1;
72329;PMS5003;69154;52.076;5.110;2023-04-25T13:36:05;3;3;
72329;PMS5003;69154;52.076;5.110;2023-04-25T13:38:20;2;1;
72329;PMS5003;69154;52.076;5.110;2023-04-25T13:40:45;4;3;
72329;PMS5003;69154;52.076;5.110;2023-04-25T13:43:10;3;3;
72329;PMS5003;69154;52.076;5.110;2023-04-25T13:45:35;2;2;
72329;PMS5003;69154;52.076;5.110;2023-04-25T13:48:01;2;1;
72329;PMS5003;69154;52.076;5.110;2023-04-25T13:50:26;2;2;
72329;PMS5003;69154;52.076;5.110;2023-04-25T13:52:51;2;2;
72329;PMS5003;69154;52.076;5.110;2023-04-25T13:55:16;3;3;
72329;PMS5003;69154;52.076;5.110;2023-04-25T13:57:41;3;2;
72329;PMS5003;69154;52.076;5.110;2023-04-25T14:00:07;2;1;
72329;PMS5003;69154;52.076;5.110;2023-04-25T14:02:31;3;3;
72329;PMS5003;69154;52.076;5.110;2023-04-25T14:04:56;3;3;
72329;PMS5003;69154;52.076;5.110;2023-04-25T14:07:22;3;2;
72329;PMS5003;69154;52.076;5.110;2023-04-25T14:09:47;3;3;
72329;PMS5003;69154;52.076;5.110;2023-04-25T14:12:12;4;3;
72329;PMS5003;69154;52.076;5.110;2023-04-25T14:14:37;3;3;
72329;PMS5003;69154;52.076;5.110;2023-04-25T14:17:03;3;3;
72329;PMS5003;69154;52.076;5.110;2023-04-25T14:19:27;4;3;
72329;PMS5003;69154;52.076;5.110;2023-04-25T14:21:53;3;2;
72329;PMS5003;69154;52.076;5.110;2023-04-25T14:24:18;2;2;
72329;PMS5003;69154;52.076;5.110;2023-04-25T14:26:43;3;3;
72329;PMS5003;69154;52.076;5.110;2023-04-25T14:29:08;4;3;
72329;PMS5003;69154;52.076;5.110;2023-04-25T14:31:34;3;3;
72329;PMS5003;69154;52.076;5.110;2023-04-25T14:33:59;3;3;
72329;PMS5003;69154;52.076;5.110;2023-04-25T14:36:24;2;2;
72329;PMS5003;69154;52.076;5.110;2023-04-25T14:38:49;4;4;
72329;PMS5003;69154;52.076;5.110;2023-04-25T14:41:15;4;3;
72329;PMS5003;69154;52.076;5.110;2023-04-25T14:43:40;4;4;
72329;PMS5003;69154;52.076;5.110;2023-04-25T14:46:05;3;3;
72329;PMS5003;69154;52.076;5.110;2023-04-25T14:48:30;2;2;
72329;PMS5003;69154;52.076;5.110;2023-04-25T14:50:56;2;2;
72329;PMS5003;69154;52.076;5.110;2023-04-25T14:53:21;2;2;
72329;PMS5003;69154;52.076;5.110;2023-04-25T14:55:46;4;4;
72329;PMS5003;69154;52.076;5.110;2023-04-25T14:58:11;2;2;
72329;PMS5003;69154;52.076;5.110;2023-04-25T15:00:37;3;2;
72329;PMS5003;69154;52.076;5.110;2023-04-25T15:03:02;3;3;
72329;PMS5003;69154;52.076;5.110;2023-04-25T15:05:27;4;4;
72329;PMS5003;69154;52.076;5.110;2023-04-25T15:07:52;3;3;
72329;PMS5003;69154;52.076;5.110;2023-04-25T15:10:18;4;3;
72329;PMS5003;69154;52.076;5.110;2023-04-25T15:12:43;3;3;
72329;PMS5003;69154;52.076;5.110;2023-04-25T15:15:09;3;3;
72329;PMS5003;69154;52.076;5.110;2023-04-25T15:17:34;3;3;
72329;PMS5003;69154;52.076;5.110;2023-04-25T15:19:59;4;3;
72329;PMS5003;69154;52.076;5.110;2023-04-25T15:22:25;2;2;
72329;PMS5003;69154;52.076;5.110;2023-04-25T15:24:50;5;5;
72329;PMS5003;69154;52.076;5.110;2023-04-25T15:27:15;4;4;
72329;PMS5003;69154;52.076;5.110;2023-04-25T15:29:40;3;3;
72329;PMS5003;69154;52.076;5.110;2023-04-25T15:32:05;4;4;
72329;PMS5003;69154;52.076;5.110;2023-04-25T15:34:31;4;3;
72329;PMS5003;69154;52.076;5.110;2023-04-25T15:36:56;3;3;
72329;PMS5003;69154;52.076;5.110;2023-04-25T15:39:21;4;4;
72329;PMS5003;69154;52.076;5.110;2023-04-25T15:41:47;5;4;
72329;PMS5003;69154;52.076;5.110;2023-04-25T15:44:12;4;4;
72329;PMS5003;69154;52.076;5.110;2023-04-25T15:46:38;5;4;
72329;PMS5003;69154;52.076;5.110;2023-04-25T15:49:03;4;4;
72329;PMS5003;69154;52.076;5.110;2023-04-25T15:51:28;4;4;
72329;PMS5003;69154;52.076;5.110;2023-04-25T15:53:53;4;4;
72329;PMS5003;69154;52.076;5.110;2023-04-25T15:56:19;4;4;
72329;PMS5003;69154;52.076;5.110;2023-04-25T15:58:44;3;3;
72329;PMS5003;69154;52.076;5.110;2023-04-25T16:01:09;6;4;
72329;PMS5003;69154;52.076;5.110;2023-04-25T16:03:34;5;4;
72329;PMS5003;69154;52.076;5.110;2023-04-25T16:06:00;4;4;
72329;PMS5003;69154;52.076;5.110;2023-04-25T16:08:26;3;3;
72329;PMS5003;69154;52.076;5.110;2023-04-25T16:10:50;2;2;
72329;PMS5003;69154;52.076;5.110;2023-04-25T16:13:15;3;3;
72329;PMS5003;69154;52.076;5.110;2023-04-25T16:15:41;4;4;
72329;PMS5003;69154;52.076;5.110;2023-04-25T16:18:06;3;3;
72329;PMS5003;69154;52.076;5.110;2023-04-25T16:20:31;2;2;
72329;PMS5003;69154;52.076;5.110;2023-04-25T16:22:57;2;2;
72329;PMS5003;69154;52.076;5.110;2023-04-25T16:25:22;2;2;
72329;PMS5003;69154;52.076;5.110;2023-04-25T16:27:47;3;3;
72329;PMS5003;69154;52.076;5.110;2023-04-25T16:30:13;3;3;
72329;PMS5003;69154;52.076;5.110;2023-04-25T16:32:38;3;2;
72329;PMS5003;69154;52.076;5.110;2023-04-25T16:35:03;2;2;